sensor_id;sensor_type;location;lat;lon;timestamp;P1;durP1;ratioP1;P2;durP2;ratioP2
51764;SDS011;37835;53.256;6.456;2022-09-06T00:00:33;7.78;;;3.83;;
51764;SDS011;37835;53.256;6.456;2022-09-06T00:02:59;7.10;;;3.92;;
51764;SDS011;37835;53.256;6.456;2022-09-06T00:05:26;6.72;;;3.90;;
51764;SDS011;37835;53.256;6.456;2022-09-06T00:07:52;5.00;;;3.50;;
51764;SDS011;37835;53.256;6.456;2022-09-06T00:10:18;6.55;;;3.72;;
51764;SDS011;37835;53.256;6.456;2022-09-06T00:12:43;3.42;;;3.13;;
51764;SDS011;37835;53.256;6.456;2022-09-06T00:15:09;6.97;;;4.05;;
51764;SDS011;37835;53.256;6.456;2022-09-06T00:17:35;7.57;;;4.13;;
51764;SDS011;37835;53.256;6.456;2022-09-06T00:20:02;11.73;;;3.80;;
51764;SDS011;37835;53.256;6.456;2022-09-06T00:22:28;8.13;;;3.47;;
51764;SDS011;37835;53.256;6.456;2022-09-06T00:24:54;7.07;;;3.58;;
51764;SDS011;37835;53.256;6.456;2022-09-06T00:27:21;5.53;;;3.83;;
51764;SDS011;37835;53.256;6.456;2022-09-06T00:29:46;8.85;;;3.60;;
51764;SDS011;37835;53.256;6.456;2022-09-06T00:32:12;4.82;;;3.53;;
51764;SDS011;37835;53.256;6.456;2022-09-06T00:34:37;7.65;;;3.15;;
51764;SDS011;37835;53.256;6.456;2022-09-06T00:37:03;7.47;;;3.20;;
51764;SDS011;37835;53.256;6.456;2022-09-06T00:39:29;6.10;;;3.65;;
51764;SDS011;37835;53.256;6.456;2022-09-06T00:41:54;13.27;;;4.15;;
51764;SDS011;37835;53.256;6.456;2022-09-06T00:44:20;4.45;;;3.60;;
51764;SDS011;37835;53.256;6.456;2022-09-06T00:46:46;13.50;;;3.85;;
51764;SDS011;37835;53.256;6.456;2022-09-06T00:49:15;6.40;;;3.90;;
51764;SDS011;37835;53.256;6.456;2022-09-06T00:51:49;9.18;;;4.18;;
51764;SDS011;37835;53.256;6.456;2022-09-06T00:54:20;6.45;;;3.58;;
51764;SDS011;37835;53.256;6.456;2022-09-06T00:56:46;7.75;;;3.83;;
51764;SDS011;37835;53.256;6.456;2022-09-06T00:59:12;5.38;;;3.67;;
51764;SDS011;37835;53.256;6.456;2022-09-06T01:01:38;5.00;;;4.20;;
51764;SDS011;37835;53.256;6.456;2022-09-06T01:04:04;4.45;;;4.05;;
51764;SDS011;37835;53.256;6.456;2022-09-06T01:06:43;7.15;;;4.63;;
51764;SDS011;37835;53.256;6.456;2022-09-06T01:14:49;9.85;;;4.30;;
51764;SDS011;37835;53.256;6.456;2022-09-06T01:26:02;5.93;;;3.70;;
51764;SDS011;37835;53.256;6.456;2022-09-06T01:28:35;5.78;;;3.88;;
51764;SDS011;37835;53.256;6.456;2022-09-06T01:33:47;6.40;;;4.30;;
51764;SDS011;37835;53.256;6.456;2022-09-06T01:36:36;5.20;;;4.03;;
51764;SDS011;37835;53.256;6.456;2022-09-06T01:39:54;7.80;;;4.45;;
51764;SDS011;37835;53.256;6.456;2022-09-06T01:42:06;8.77;;;4.20;;
51764;SDS011;37835;53.256;6.456;2022-09-06T01:44:42;13.40;;;4.35;;
51764;SDS011;37835;53.256;6.456;2022-09-06T01:53:15;9.93;;;3.90;;
51764;SDS011;37835;53.256;6.456;2022-09-06T01:55:55;9.38;;;3.90;;
51764;SDS011;37835;53.256;6.456;2022-09-06T01:58:38;5.18;;;3.88;;
51764;SDS011;37835;53.256;6.456;2022-09-06T02:01:12;7.93;;;4.20;;
51764;SDS011;37835;53.256;6.456;2022-09-06T02:04:03;7.10;;;3.88;;
51764;SDS011;37835;53.256;6.456;2022-09-06T02:06:49;4.05;;;3.75;;
51764;SDS011;37835;53.256;6.456;2022-09-06T02:09:21;6.43;;;3.75;;
51764;SDS011;37835;53.256;6.456;2022-09-06T02:11:50;8.50;;;3.83;;
51764;SDS011;37835;53.256;6.456;2022-09-06T02:14:24;6.20;;;3.67;;
51764;SDS011;37835;53.256;6.456;2022-09-06T02:16:55;5.72;;;4.30;;
51764;SDS011;37835;53.256;6.456;2022-09-06T02:19:33;7.03;;;4.32;;
51764;SDS011;37835;53.256;6.456;2022-09-06T02:22:04;6.47;;;4.28;;
51764;SDS011;37835;53.256;6.456;2022-09-06T02:24:32;4.47;;;4.07;;
51764;SDS011;37835;53.256;6.456;2022-09-06T02:27:01;13.38;;;3.97;;
51764;SDS011;37835;53.256;6.456;2022-09-06T02:29:27;6.63;;;4.10;;
51764;SDS011;37835;53.256;6.456;2022-09-06T02:31:55;4.32;;;3.83;;
51764;SDS011;37835;53.256;6.456;2022-09-06T02:34:37;7.05;;;4.15;;
51764;SDS011;37835;53.256;6.456;2022-09-06T02:37:07;4.38;;;3.92;;
51764;SDS011;37835;53.256;6.456;2022-09-06T02:39:34;4.95;;;4.25;;
51764;SDS011;37835;53.256;6.456;2022-09-06T02:42:00;7.47;;;4.60;;
51764;SDS011;37835;53.256;6.456;2022-09-06T02:44:26;7.75;;;4.57;;
51764;SDS011;37835;53.256;6.456;2022-09-06T02:46:51;9.38;;;4.25;;
51764;SDS011;37835;53.256;6.456;2022-09-06T02:49:17;7.95;;;3.92;;
51764;SDS011;37835;53.256;6.456;2022-09-06T02:51:43;4.43;;;4.00;;
51764;SDS011;37835;53.256;6.456;2022-09-06T02:54:08;4.68;;;4.10;;
51764;SDS011;37835;53.256;6.456;2022-09-06T02:56:34;8.13;;;4.60;;
51764;SDS011;37835;53.256;6.456;2022-09-06T02:59:00;4.53;;;4.10;;
51764;SDS011;37835;53.256;6.456;2022-09-06T03:01:28;4.80;;;4.07;;
51764;SDS011;37835;53.256;6.456;2022-09-06T03:03:54;4.78;;;3.80;;
51764;SDS011;37835;53.256;6.456;2022-09-06T03:06:20;9.50;;;4.30;;
51764;SDS011;37835;53.256;6.456;2022-09-06T03:08:46;6.93;;;4.63;;
51764;SDS011;37835;53.256;6.456;2022-09-06T03:11:12;5.80;;;4.53;;
51764;SDS011;37835;53.256;6.456;2022-09-06T03:13:37;5.38;;;4.18;;
51764;SDS011;37835;53.256;6.456;2022-09-06T03:16:03;5.53;;;4.68;;
51764;SDS011;37835;53.256;6.456;2022-09-06T03:18:29;6.38;;;4.43;;
51764;SDS011;37835;53.256;6.456;2022-09-06T03:20:56;7.13;;;4.78;;
51764;SDS011;37835;53.256;6.456;2022-09-06T03:23:23;6.75;;;4.68;;
51764;SDS011;37835;53.256;6.456;2022-09-06T03:25:50;5.22;;;4.72;;
51764;SDS011;37835;53.256;6.456;2022-09-06T03:28:16;12.45;;;4.90;;
51764;SDS011;37835;53.256;6.456;2022-09-06T03:30:49;8.00;;;5.22;;
51764;SDS011;37835;53.256;6.456;2022-09-06T03:33:15;5.47;;;4.97;;
51764;SDS011;37835;53.256;6.456;2022-09-06T03:35:50;6.68;;;4.95;;
51764;SDS011;37835;53.256;6.456;2022-09-06T03:40:49;5.47;;;4.97;;
51764;SDS011;37835;53.256;6.456;2022-09-06T03:43:17;6.18;;;5.15;;
51764;SDS011;37835;53.256;6.456;2022-09-06T03:45:47;8.77;;;5.78;;
51764;SDS011;37835;53.256;6.456;2022-09-06T03:48:14;4.90;;;4.50;;
51764;SDS011;37835;53.256;6.456;2022-09-06T03:50:47;6.60;;;5.65;;
51764;SDS011;37835;53.256;6.456;2022-09-06T03:53:15;9.35;;;5.20;;
51764;SDS011;37835;53.256;6.456;2022-09-06T03:55:45;5.82;;;5.32;;
51764;SDS011;37835;53.256;6.456;2022-09-06T03:58:12;6.45;;;5.22;;
51764;SDS011;37835;53.256;6.456;2022-09-06T04:00:39;9.93;;;5.30;;
51764;SDS011;37835;53.256;6.456;2022-09-06T04:03:05;6.60;;;5.10;;
51764;SDS011;37835;53.256;6.456;2022-09-06T04:05:30;5.97;;;5.38;;
51764;SDS011;37835;53.256;6.456;2022-09-06T04:07:56;9.95;;;5.70;;
51764;SDS011;37835;53.256;6.456;2022-09-06T04:10:21;6.57;;;5.22;;
51764;SDS011;37835;53.256;6.456;2022-09-06T04:12:47;5.53;;;5.13;;
51764;SDS011;37835;53.256;6.456;2022-09-06T04:15:13;5.35;;;4.85;;
51764;SDS011;37835;53.256;6.456;2022-09-06T04:17:41;10.07;;;5.97;;
51764;SDS011;37835;53.256;6.456;2022-09-06T04:20:09;5.95;;;5.43;;
51764;SDS011;37835;53.256;6.456;2022-09-06T04:22:34;6.32;;;5.68;;
51764;SDS011;37835;53.256;6.456;2022-09-06T04:25:00;8.52;;;5.78;;
51764;SDS011;37835;53.256;6.456;2022-09-06T04:27:25;5.97;;;5.50;;
51764;SDS011;37835;53.256;6.456;2022-09-06T04:29:51;7.93;;;5.85;;
51764;SDS011;37835;53.256;6.456;2022-09-06T04:32:16;7.50;;;5.50;;
51764;SDS011;37835;53.256;6.456;2022-09-06T04:34:42;8.38;;;5.88;;
51764;SDS011;37835;53.256;6.456;2022-09-06T04:37:07;8.07;;;5.82;;
51764;SDS011;37835;53.256;6.456;2022-09-06T04:39:33;11.15;;;5.60;;
51764;SDS011;37835;53.256;6.456;2022-09-06T04:41:59;6.15;;;5.32;;
51764;SDS011;37835;53.256;6.456;2022-09-06T04:44:24;5.95;;;5.35;;
51764;SDS011;37835;53.256;6.456;2022-09-06T04:46:50;6.50;;;5.70;;
51764;SDS011;37835;53.256;6.456;2022-09-06T04:49:25;6.10;;;5.22;;
51764;SDS011;37835;53.256;6.456;2022-09-06T04:51:51;8.25;;;5.80;;
51764;SDS011;37835;53.256;6.456;2022-09-06T04:54:17;7.25;;;6.20;;
51764;SDS011;37835;53.256;6.456;2022-09-06T04:56:42;7.07;;;6.38;;
51764;SDS011;37835;53.256;6.456;2022-09-06T04:59:08;10.02;;;6.50;;
51764;SDS011;37835;53.256;6.456;2022-09-06T05:01:33;7.80;;;6.20;;
51764;SDS011;37835;53.256;6.456;2022-09-06T05:03:59;9.10;;;7.07;;
51764;SDS011;37835;53.256;6.456;2022-09-06T05:06:25;11.05;;;6.97;;
51764;SDS011;37835;53.256;6.456;2022-09-06T05:08:50;7.38;;;6.15;;
51764;SDS011;37835;53.256;6.456;2022-09-06T05:11:16;7.38;;;6.72;;
51764;SDS011;37835;53.256;6.456;2022-09-06T05:13:42;7.63;;;6.72;;
51764;SDS011;37835;53.256;6.456;2022-09-06T05:16:10;10.63;;;6.60;;
51764;SDS011;37835;53.256;6.456;2022-09-06T05:18:35;9.50;;;6.93;;
51764;SDS011;37835;53.256;6.456;2022-09-06T05:21:01;9.20;;;7.20;;
51764;SDS011;37835;53.256;6.456;2022-09-06T05:23:27;9.90;;;6.75;;
51764;SDS011;37835;53.256;6.456;2022-09-06T05:25:53;10.88;;;7.65;;
51764;SDS011;37835;53.256;6.456;2022-09-06T05:28:19;8.50;;;7.25;;
51764;SDS011;37835;53.256;6.456;2022-09-06T05:30:44;9.73;;;7.97;;
51764;SDS011;37835;53.256;6.456;2022-09-06T05:33:11;8.88;;;7.93;;
51764;SDS011;37835;53.256;6.456;2022-09-06T05:35:38;9.27;;;7.70;;
51764;SDS011;37835;53.256;6.456;2022-09-06T05:38:04;8.45;;;7.75;;
51764;SDS011;37835;53.256;6.456;2022-09-06T05:40:29;10.18;;;8.52;;
51764;SDS011;37835;53.256;6.456;2022-09-06T05:42:55;11.93;;;8.00;;
51764;SDS011;37835;53.256;6.456;2022-09-06T05:45:21;8.57;;;7.68;;
51764;SDS011;37835;53.256;6.456;2022-09-06T05:47:46;12.90;;;7.93;;
51764;SDS011;37835;53.256;6.456;2022-09-06T05:50:12;10.32;;;8.68;;
51764;SDS011;37835;53.256;6.456;2022-09-06T05:52:38;13.57;;;7.80;;
51764;SDS011;37835;53.256;6.456;2022-09-06T05:55:04;8.73;;;7.53;;
51764;SDS011;37835;53.256;6.456;2022-09-06T05:57:30;12.27;;;8.90;;
51764;SDS011;37835;53.256;6.456;2022-09-06T05:59:56;9.38;;;8.20;;
51764;SDS011;37835;53.256;6.456;2022-09-06T06:02:22;9.73;;;8.77;;
51764;SDS011;37835;53.256;6.456;2022-09-06T06:04:48;14.18;;;8.48;;
51764;SDS011;37835;53.256;6.456;2022-09-06T06:07:14;8.95;;;8.05;;
51764;SDS011;37835;53.256;6.456;2022-09-06T06:09:40;10.07;;;7.80;;
51764;SDS011;37835;53.256;6.456;2022-09-06T06:12:06;10.25;;;8.05;;
51764;SDS011;37835;53.256;6.456;2022-09-06T06:14:32;12.25;;;8.43;;
51764;SDS011;37835;53.256;6.456;2022-09-06T06:16:58;8.98;;;8.20;;
51764;SDS011;37835;53.256;6.456;2022-09-06T06:19:24;10.18;;;9.25;;
51764;SDS011;37835;53.256;6.456;2022-09-06T06:21:50;9.93;;;8.52;;
51764;SDS011;37835;53.256;6.456;2022-09-06T06:24:16;10.52;;;8.73;;
51764;SDS011;37835;53.256;6.456;2022-09-06T06:26:42;9.65;;;8.38;;
51764;SDS011;37835;53.256;6.456;2022-09-06T06:29:08;9.25;;;8.30;;
51764;SDS011;37835;53.256;6.456;2022-09-06T06:31:34;10.45;;;9.27;;
51764;SDS011;37835;53.256;6.456;2022-09-06T06:34:01;9.02;;;8.23;;
51764;SDS011;37835;53.256;6.456;2022-09-06T06:36:28;10.85;;;9.80;;
51764;SDS011;37835;53.256;6.456;2022-09-06T06:38:55;9.82;;;8.93;;
51764;SDS011;37835;53.256;6.456;2022-09-06T06:41:22;9.68;;;8.73;;
51764;SDS011;37835;53.256;6.456;2022-09-06T06:43:53;10.23;;;9.32;;
51764;SDS011;37835;53.256;6.456;2022-09-06T06:46:20;12.00;;;9.98;;
51764;SDS011;37835;53.256;6.456;2022-09-06T06:48:47;11.90;;;10.07;;
51764;SDS011;37835;53.256;6.456;2022-09-06T06:51:14;12.80;;;9.68;;
51764;SDS011;37835;53.256;6.456;2022-09-06T06:53:41;10.73;;;9.60;;
51764;SDS011;37835;53.256;6.456;2022-09-06T06:56:27;16.60;;;10.52;;
51764;SDS011;37835;53.256;6.456;2022-09-06T06:58:55;12.30;;;10.60;;
51764;SDS011;37835;53.256;6.456;2022-09-06T07:01:22;12.23;;;10.57;;
51764;SDS011;37835;53.256;6.456;2022-09-06T07:03:50;11.65;;;10.55;;
51764;SDS011;37835;53.256;6.456;2022-09-06T07:06:16;14.68;;;10.23;;
51764;SDS011;37835;53.256;6.456;2022-09-06T07:08:42;11.48;;;10.35;;
51764;SDS011;37835;53.256;6.456;2022-09-06T07:11:09;12.05;;;10.82;;
51764;SDS011;37835;53.256;6.456;2022-09-06T07:13:36;11.95;;;10.75;;
51764;SDS011;37835;53.256;6.456;2022-09-06T07:16:05;12.05;;;10.68;;
51764;SDS011;37835;53.256;6.456;2022-09-06T07:18:31;12.20;;;10.98;;
51764;SDS011;37835;53.256;6.456;2022-09-06T07:20:56;12.30;;;11.18;;
51764;SDS011;37835;53.256;6.456;2022-09-06T07:23:22;14.25;;;10.55;;
51764;SDS011;37835;53.256;6.456;2022-09-06T07:25:49;13.27;;;11.95;;
51764;SDS011;37835;53.256;6.456;2022-09-06T07:28:14;14.45;;;11.95;;
51764;SDS011;37835;53.256;6.456;2022-09-06T07:30:40;14.05;;;11.30;;
51764;SDS011;37835;53.256;6.456;2022-09-06T07:33:06;13.88;;;11.65;;
51764;SDS011;37835;53.256;6.456;2022-09-06T07:35:32;15.20;;;11.07;;
51764;SDS011;37835;53.256;6.456;2022-09-06T07:37:59;13.40;;;11.52;;
51764;SDS011;37835;53.256;6.456;2022-09-06T07:40:26;12.77;;;10.95;;
51764;SDS011;37835;53.256;6.456;2022-09-06T07:42:56;15.70;;;11.05;;
51764;SDS011;37835;53.256;6.456;2022-09-06T07:45:23;13.43;;;10.10;;
51764;SDS011;37835;53.256;6.456;2022-09-06T07:47:52;12.88;;;11.00;;
51764;SDS011;37835;53.256;6.456;2022-09-06T07:50:19;16.45;;;11.02;;
51764;SDS011;37835;53.256;6.456;2022-09-06T07:52:45;14.75;;;11.43;;
51764;SDS011;37835;53.256;6.456;2022-09-06T07:55:10;18.20;;;11.38;;
51764;SDS011;37835;53.256;6.456;2022-09-06T07:57:36;18.27;;;12.40;;
51764;SDS011;37835;53.256;6.456;2022-09-06T08:00:02;17.15;;;11.13;;
51764;SDS011;37835;53.256;6.456;2022-09-06T08:02:28;19.88;;;11.98;;
51764;SDS011;37835;53.256;6.456;2022-09-06T08:04:55;13.55;;;12.18;;
51764;SDS011;37835;53.256;6.456;2022-09-06T08:07:20;14.50;;;10.90;;
51764;SDS011;37835;53.256;6.456;2022-09-06T08:09:46;13.82;;;10.75;;
51764;SDS011;37835;53.256;6.456;2022-09-06T08:12:12;13.13;;;10.82;;
51764;SDS011;37835;53.256;6.456;2022-09-06T08:14:37;15.18;;;11.00;;
51764;SDS011;37835;53.256;6.456;2022-09-06T08:17:03;13.00;;;10.13;;
51764;SDS011;37835;53.256;6.456;2022-09-06T08:19:28;15.02;;;10.35;;
51764;SDS011;37835;53.256;6.456;2022-09-06T08:21:54;14.68;;;10.88;;
51764;SDS011;37835;53.256;6.456;2022-09-06T08:24:20;12.00;;;9.95;;
51764;SDS011;37835;53.256;6.456;2022-09-06T08:26:45;14.57;;;10.32;;
51764;SDS011;37835;53.256;6.456;2022-09-06T08:29:11;12.82;;;10.13;;
51764;SDS011;37835;53.256;6.456;2022-09-06T08:31:41;16.67;;;10.60;;
51764;SDS011;37835;53.256;6.456;2022-09-06T08:34:08;16.95;;;10.32;;
51764;SDS011;37835;53.256;6.456;2022-09-06T08:36:36;12.57;;;10.20;;
51764;SDS011;37835;53.256;6.456;2022-09-06T08:39:03;11.70;;;9.57;;
51764;SDS011;37835;53.256;6.456;2022-09-06T08:41:39;11.23;;;9.35;;
51764;SDS011;37835;53.256;6.456;2022-09-06T08:46:57;11.27;;;9.93;;
51764;SDS011;37835;53.256;6.456;2022-09-06T08:49:27;12.75;;;9.48;;
51764;SDS011;37835;53.256;6.456;2022-09-06T08:54:53;12.32;;;9.60;;
51764;SDS011;37835;53.256;6.456;2022-09-06T09:00:19;10.93;;;8.52;;
51764;SDS011;37835;53.256;6.456;2022-09-06T09:02:50;15.93;;;9.15;;
51764;SDS011;37835;53.256;6.456;2022-09-06T09:05:25;11.80;;;9.02;;
51764;SDS011;37835;53.256;6.456;2022-09-06T09:10:30;17.33;;;9.13;;
51764;SDS011;37835;53.256;6.456;2022-09-06T09:13:05;11.63;;;9.00;;
51764;SDS011;37835;53.256;6.456;2022-09-06T09:15:33;13.00;;;8.75;;
51764;SDS011;37835;53.256;6.456;2022-09-06T09:18:00;19.05;;;8.85;;
51764;SDS011;37835;53.256;6.456;2022-09-06T09:20:26;10.40;;;8.20;;
51764;SDS011;37835;53.256;6.456;2022-09-06T09:22:51;11.55;;;8.93;;
51764;SDS011;37835;53.256;6.456;2022-09-06T09:25:21;12.45;;;8.98;;
51764;SDS011;37835;53.256;6.456;2022-09-06T09:27:48;10.03;;;9.13;;
51764;SDS011;37835;53.256;6.456;2022-09-06T09:30:22;9.75;;;8.15;;
51764;SDS011;37835;53.256;6.456;2022-09-06T09:32:49;12.77;;;8.52;;
51764;SDS011;37835;53.256;6.456;2022-09-06T09:35:35;9.73;;;8.82;;
51764;SDS011;37835;53.256;6.456;2022-09-06T09:40:58;9.68;;;7.82;;
51764;SDS011;37835;53.256;6.456;2022-09-06T09:43:30;10.48;;;8.90;;
51764;SDS011;37835;53.256;6.456;2022-09-06T09:49:14;11.52;;;7.22;;
51764;SDS011;37835;53.256;6.456;2022-09-06T09:54:30;13.02;;;8.30;;
51764;SDS011;37835;53.256;6.456;2022-09-06T09:56:58;13.55;;;7.78;;
51764;SDS011;37835;53.256;6.456;2022-09-06T09:59:28;12.02;;;7.30;;
51764;SDS011;37835;53.256;6.456;2022-09-06T10:02:00;9.23;;;7.15;;
51764;SDS011;37835;53.256;6.456;2022-09-06T10:04:43;14.35;;;7.55;;
51764;SDS011;37835;53.256;6.456;2022-09-06T10:07:17;10.30;;;7.57;;
51764;SDS011;37835;53.256;6.456;2022-09-06T10:09:45;8.90;;;7.68;;
51764;SDS011;37835;53.256;6.456;2022-09-06T10:14:55;12.00;;;8.63;;
51764;SDS011;37835;53.256;6.456;2022-09-06T10:20:02;11.27;;;8.02;;
51764;SDS011;37835;53.256;6.456;2022-09-06T10:23:34;14.20;;;9.38;;
51764;SDS011;37835;53.256;6.456;2022-09-06T10:31:11;9.73;;;8.38;;
51764;SDS011;37835;53.256;6.456;2022-09-06T10:39:18;11.43;;;8.20;;
51764;SDS011;37835;53.256;6.456;2022-09-06T10:47:44;10.15;;;7.53;;
51764;SDS011;37835;53.256;6.456;2022-09-06T11:04:10;12.27;;;8.90;;
51764;SDS011;37835;53.256;6.456;2022-09-06T11:06:52;9.60;;;7.72;;
51764;SDS011;37835;53.256;6.456;2022-09-06T11:09:26;13.65;;;7.45;;
51764;SDS011;37835;53.256;6.456;2022-09-06T11:14:36;10.48;;;8.15;;
51764;SDS011;37835;53.256;6.456;2022-09-06T11:17:07;12.52;;;7.93;;
51764;SDS011;37835;53.256;6.456;2022-09-06T11:19:40;11.85;;;7.72;;
51764;SDS011;37835;53.256;6.456;2022-09-06T11:27:46;8.20;;;7.45;;
51764;SDS011;37835;53.256;6.456;2022-09-06T11:30:17;16.80;;;7.85;;
51764;SDS011;37835;53.256;6.456;2022-09-06T11:32:44;11.18;;;7.47;;
51764;SDS011;37835;53.256;6.456;2022-09-06T11:35:24;10.00;;;8.35;;
51764;SDS011;37835;53.256;6.456;2022-09-06T11:38:02;9.25;;;6.95;;
51764;SDS011;37835;53.256;6.456;2022-09-06T11:41:14;14.05;;;7.22;;
51764;SDS011;37835;53.256;6.456;2022-09-06T11:43:42;12.82;;;6.93;;
51764;SDS011;37835;53.256;6.456;2022-09-06T11:46:26;13.25;;;7.20;;
51764;SDS011;37835;53.256;6.456;2022-09-06T11:51:39;8.90;;;7.18;;
51764;SDS011;37835;53.256;6.456;2022-09-06T12:02:00;14.73;;;6.50;;
51764;SDS011;37835;53.256;6.456;2022-09-06T12:08:09;9.77;;;5.97;;
51764;SDS011;37835;53.256;6.456;2022-09-06T12:10:57;6.45;;;5.85;;
51764;SDS011;37835;53.256;6.456;2022-09-06T12:16:09;5.65;;;5.10;;
51764;SDS011;37835;53.256;6.456;2022-09-06T12:26:03;8.65;;;5.38;;
51764;SDS011;37835;53.256;6.456;2022-09-06T12:28:44;9.95;;;5.40;;
51764;SDS011;37835;53.256;6.456;2022-09-06T12:33:52;7.30;;;4.88;;
51764;SDS011;37835;53.256;6.456;2022-09-06T12:36:23;9.85;;;4.60;;
51764;SDS011;37835;53.256;6.456;2022-09-06T12:41:23;9.00;;;4.95;;
51764;SDS011;37835;53.256;6.456;2022-09-06T12:43:51;7.13;;;4.50;;
51764;SDS011;37835;53.256;6.456;2022-09-06T12:46:19;11.02;;;4.95;;
51764;SDS011;37835;53.256;6.456;2022-09-06T12:51:33;8.60;;;3.92;;
51764;SDS011;37835;53.256;6.456;2022-09-06T12:54:02;9.88;;;4.72;;
51764;SDS011;37835;53.256;6.456;2022-09-06T12:56:30;12.05;;;4.40;;
51764;SDS011;37835;53.256;6.456;2022-09-06T13:02:00;9.68;;;4.93;;
51764;SDS011;37835;53.256;6.456;2022-09-06T13:04:38;6.45;;;4.85;;
51764;SDS011;37835;53.256;6.456;2022-09-06T13:07:08;6.85;;;4.43;;
51764;SDS011;37835;53.256;6.456;2022-09-06T13:09:37;6.93;;;4.77;;
51764;SDS011;37835;53.256;6.456;2022-09-06T13:12:07;8.15;;;3.92;;
51764;SDS011;37835;53.256;6.456;2022-09-06T13:14:42;12.45;;;4.10;;
51764;SDS011;37835;53.256;6.456;2022-09-06T13:17:08;6.47;;;4.25;;
51764;SDS011;37835;53.256;6.456;2022-09-06T13:19:50;5.32;;;4.40;;
51764;SDS011;37835;53.256;6.456;2022-09-06T13:22:36;6.35;;;4.43;;
51764;SDS011;37835;53.256;6.456;2022-09-06T13:25:03;6.47;;;4.70;;
51764;SDS011;37835;53.256;6.456;2022-09-06T13:29:58;10.18;;;5.05;;
51764;SDS011;37835;53.256;6.456;2022-09-06T13:32:26;6.40;;;4.25;;
51764;SDS011;37835;53.256;6.456;2022-09-06T13:34:52;6.13;;;4.50;;
51764;SDS011;37835;53.256;6.456;2022-09-06T13:37:30;7.72;;;4.30;;
51764;SDS011;37835;53.256;6.456;2022-09-06T13:40:34;4.50;;;4.10;;
51764;SDS011;37835;53.256;6.456;2022-09-06T13:43:05;5.32;;;4.10;;
51764;SDS011;37835;53.256;6.456;2022-09-06T13:45:36;7.68;;;4.03;;
51764;SDS011;37835;53.256;6.456;2022-09-06T13:48:02;5.53;;;4.25;;
51764;SDS011;37835;53.256;6.456;2022-09-06T13:50:28;8.35;;;4.20;;
51764;SDS011;37835;53.256;6.456;2022-09-06T13:52:53;6.65;;;4.45;;
51764;SDS011;37835;53.256;6.456;2022-09-06T13:55:20;4.28;;;3.97;;
51764;SDS011;37835;53.256;6.456;2022-09-06T13:57:48;4.25;;;3.85;;
51764;SDS011;37835;53.256;6.456;2022-09-06T14:00:14;5.63;;;3.67;;
51764;SDS011;37835;53.256;6.456;2022-09-06T14:02:41;4.97;;;3.80;;
51764;SDS011;37835;53.256;6.456;2022-09-06T14:05:07;5.60;;;3.08;;
51764;SDS011;37835;53.256;6.456;2022-09-06T14:07:33;14.15;;;3.30;;
51764;SDS011;37835;53.256;6.456;2022-09-06T14:09:59;8.85;;;3.25;;
51764;SDS011;37835;53.256;6.456;2022-09-06T14:12:27;5.88;;;3.05;;
51764;SDS011;37835;53.256;6.456;2022-09-06T14:14:53;4.57;;;2.88;;
51764;SDS011;37835;53.256;6.456;2022-09-06T14:17:18;4.75;;;2.70;;
51764;SDS011;37835;53.256;6.456;2022-09-06T14:19:44;6.32;;;2.95;;
51764;SDS011;37835;53.256;6.456;2022-09-06T14:22:10;6.25;;;2.70;;
51764;SDS011;37835;53.256;6.456;2022-09-06T14:24:36;6.78;;;2.45;;
51764;SDS011;37835;53.256;6.456;2022-09-06T14:27:02;10.10;;;2.67;;
51764;SDS011;37835;53.256;6.456;2022-09-06T14:29:31;7.05;;;2.50;;
51764;SDS011;37835;53.256;6.456;2022-09-06T14:31:57;2.47;;;2.25;;
51764;SDS011;37835;53.256;6.456;2022-09-06T14:34:22;4.43;;;2.00;;
51764;SDS011;37835;53.256;6.456;2022-09-06T14:36:49;4.63;;;1.95;;
51764;SDS011;37835;53.256;6.456;2022-09-06T14:39:15;7.03;;;2.17;;
51764;SDS011;37835;53.256;6.456;2022-09-06T14:41:41;7.05;;;2.00;;
51764;SDS011;37835;53.256;6.456;2022-09-06T14:44:07;5.68;;;2.05;;
51764;SDS011;37835;53.256;6.456;2022-09-06T14:46:33;6.40;;;2.20;;
51764;SDS011;37835;53.256;6.456;2022-09-06T14:49:00;2.75;;;2.10;;
51764;SDS011;37835;53.256;6.456;2022-09-06T14:51:27;3.13;;;2.28;;
51764;SDS011;37835;53.256;6.456;2022-09-06T14:53:55;2.35;;;2.15;;
51764;SDS011;37835;53.256;6.456;2022-09-06T14:56:23;4.63;;;2.40;;
51764;SDS011;37835;53.256;6.456;2022-09-06T14:58:50;2.88;;;2.60;;
51764;SDS011;37835;53.256;6.456;2022-09-06T15:01:19;6.80;;;2.47;;
51764;SDS011;37835;53.256;6.456;2022-09-06T15:03:47;4.45;;;2.33;;
51764;SDS011;37835;53.256;6.456;2022-09-06T15:06:19;7.72;;;2.33;;
51764;SDS011;37835;53.256;6.456;2022-09-06T15:08:46;4.32;;;2.40;;
51764;SDS011;37835;53.256;6.456;2022-09-06T15:11:12;2.78;;;2.30;;
51764;SDS011;37835;53.256;6.456;2022-09-06T15:13:39;5.78;;;2.38;;
51764;SDS011;37835;53.256;6.456;2022-09-06T15:16:06;2.50;;;2.25;;
51764;SDS011;37835;53.256;6.456;2022-09-06T15:18:33;2.35;;;2.15;;
51764;SDS011;37835;53.256;6.456;2022-09-06T15:21:12;3.45;;;2.53;;
51764;SDS011;37835;53.256;6.456;2022-09-06T15:23:39;2.75;;;2.47;;
51764;SDS011;37835;53.256;6.456;2022-09-06T15:26:07;5.32;;;2.35;;
51764;SDS011;37835;53.256;6.456;2022-09-06T15:28:37;1.83;;;1.73;;
51764;SDS011;37835;53.256;6.456;2022-09-06T15:31:04;3.42;;;2.42;;
51764;SDS011;37835;53.256;6.456;2022-09-06T15:33:31;3.03;;;2.53;;
51764;SDS011;37835;53.256;6.456;2022-09-06T15:35:57;3.63;;;2.03;;
51764;SDS011;37835;53.256;6.456;2022-09-06T15:38:29;3.47;;;1.92;;
51764;SDS011;37835;53.256;6.456;2022-09-06T15:41:02;2.78;;;2.45;;
51764;SDS011;37835;53.256;6.456;2022-09-06T15:43:31;4.43;;;2.13;;
51764;SDS011;37835;53.256;6.456;2022-09-06T15:45:57;2.65;;;2.10;;
51764;SDS011;37835;53.256;6.456;2022-09-06T15:48:24;3.78;;;2.05;;
51764;SDS011;37835;53.256;6.456;2022-09-06T15:50:50;2.67;;;1.90;;
51764;SDS011;37835;53.256;6.456;2022-09-06T15:53:16;2.85;;;2.20;;
51764;SDS011;37835;53.256;6.456;2022-09-06T15:55:42;2.72;;;2.22;;
51764;SDS011;37835;53.256;6.456;2022-09-06T15:58:20;4.10;;;2.17;;
51764;SDS011;37835;53.256;6.456;2022-09-06T16:00:58;3.47;;;2.00;;
51764;SDS011;37835;53.256;6.456;2022-09-06T16:03:28;2.55;;;2.03;;
51764;SDS011;37835;53.256;6.456;2022-09-06T16:05:59;2.40;;;2.03;;
51764;SDS011;37835;53.256;6.456;2022-09-06T16:08:28;2.38;;;2.08;;
51764;SDS011;37835;53.256;6.456;2022-09-06T16:10:55;2.10;;;2.00;;
51764;SDS011;37835;53.256;6.456;2022-09-06T16:13:21;3.95;;;2.25;;
51764;SDS011;37835;53.256;6.456;2022-09-06T16:15:56;4.65;;;2.08;;
51764;SDS011;37835;53.256;6.456;2022-09-06T16:18:23;6.55;;;1.95;;
51764;SDS011;37835;53.256;6.456;2022-09-06T16:20:49;4.53;;;1.80;;
51764;SDS011;37835;53.256;6.456;2022-09-06T16:23:15;5.22;;;1.70;;
51764;SDS011;37835;53.256;6.456;2022-09-06T16:25:40;3.85;;;1.70;;
51764;SDS011;37835;53.256;6.456;2022-09-06T16:28:06;8.55;;;3.50;;
51764;SDS011;37835;53.256;6.456;2022-09-06T16:30:32;6.85;;;4.40;;
51764;SDS011;37835;53.256;6.456;2022-09-06T16:32:57;6.20;;;4.60;;
51764;SDS011;37835;53.256;6.456;2022-09-06T16:35:23;5.13;;;4.63;;
51764;SDS011;37835;53.256;6.456;2022-09-06T16:37:48;5.68;;;4.97;;
51764;SDS011;37835;53.256;6.456;2022-09-06T16:40:14;18.52;;;4.85;;
51764;SDS011;37835;53.256;6.456;2022-09-06T16:42:41;5.95;;;4.57;;
51764;SDS011;37835;53.256;6.456;2022-09-06T16:45:06;6.18;;;4.88;;
51764;SDS011;37835;53.256;6.456;2022-09-06T16:47:32;7.15;;;4.50;;
51764;SDS011;37835;53.256;6.456;2022-09-06T16:49:58;8.68;;;5.70;;
51764;SDS011;37835;53.256;6.456;2022-09-06T16:52:24;21.58;;;14.50;;
51764;SDS011;37835;53.256;6.456;2022-09-06T16:54:50;17.85;;;12.63;;
51764;SDS011;37835;53.256;6.456;2022-09-06T16:57:15;12.30;;;7.45;;